createdAt,value
2017-07-11T00:00:14.968Z,25.37
2017-07-11T00:00:55.422Z,25.37
2017-07-11T00:01:36.073Z,25.37
2017-07-11T00:02:16.523Z,25.31
2017-07-11T00:02:56.973Z,25.4
2017-07-11T00:03:37.418Z,25.36
2017-07-11T00:04:17.865Z,25.37
2017-07-11T00:04:58.319Z,25.36
2017-07-11T00:05:38.777Z,25.34
2017-07-11T00:06:19.223Z,25.37
2017-07-11T00:06:59.680Z,25.25
2017-07-11T00:07:40.140Z,25.26
2017-07-11T00:08:20.607Z,25.24
2017-07-11T00:09:01.070Z,25.22
2017-07-11T00:09:41.540Z,25.31
2017-07-11T00:10:21.986Z,25.21
2017-07-11T00:11:02.434Z,25.34
2017-07-11T00:11:42.892Z,25.21
2017-07-11T00:12:23.351Z,25.24
2017-07-11T00:13:03.800Z,25.26
2017-07-11T00:13:44.263Z,25.19
2017-07-11T00:14:24.725Z,25.19
2017-07-11T00:15:05.171Z,25.19
2017-07-11T00:15:45.628Z,25.24
2017-07-11T00:16:26.077Z,25.19
2017-07-11T00:17:06.521Z,25.25
2017-07-11T00:17:47.005Z,25.24
2017-07-11T00:19:34.670Z,25.19
2017-07-11T00:20:15.119Z,25.15
2017-07-11T00:20:55.779Z,25.14
2017-07-11T00:21:36.241Z,25.01
2017-07-11T00:22:16.697Z,25.04
2017-07-11T00:22:57.148Z,25.01
2017-07-11T00:23:37.601Z,24.97
2017-07-11T00:24:18.059Z,25.07
2017-07-11T00:24:58.529Z,25.06
2017-07-11T00:25:38.983Z,25.07
2017-07-11T00:26:19.438Z,25.03
2017-07-11T00:26:59.897Z,25.04
2017-07-11T00:27:40.351Z,25.01
2017-07-11T00:28:20.806Z,25.06
2017-07-11T00:29:01.256Z,25.07
2017-07-11T00:29:41.704Z,25.07
2017-07-11T00:30:22.160Z,25.11
2017-07-11T00:31:02.614Z,25.16
2017-07-11T00:31:43.060Z,25.22
2017-07-11T00:32:23.515Z,25.21
2017-07-11T00:33:03.969Z,25.26
2017-07-11T00:33:44.448Z,25.26
2017-07-11T00:34:24.899Z,25.29
2017-07-11T00:35:05.357Z,25.26
2017-07-11T00:35:45.814Z,25.36
2017-07-11T00:36:26.279Z,25.37
2017-07-11T00:37:06.752Z,25.34
2017-07-11T00:37:47.189Z,25.37
2017-07-11T00:38:27.646Z,25.39
2017-07-11T00:39:08.094Z,25.36
2017-07-11T00:39:48.542Z,25.37
2017-07-11T00:40:28.999Z,25.39
2017-07-11T00:41:09.449Z,25.49
2017-07-11T00:41:49.892Z,25.48
2017-07-11T00:42:30.353Z,25.54
2017-07-11T00:43:10.806Z,25.44
2017-07-11T00:43:51.270Z,25.54
2017-07-11T00:44:31.726Z,25.52
2017-07-11T00:45:12.190Z,25.46
2017-07-11T00:45:52.642Z,25.52
2017-07-11T00:46:33.093Z,25.52
2017-07-11T00:47:13.551Z,25.52
2017-07-11T00:47:54.026Z,25.49
2017-07-11T00:48:34.480Z,25.44
2017-07-11T00:49:14.944Z,25.39
2017-07-11T00:49:55.402Z,25.37
2017-07-11T00:50:35.861Z,25.41
2017-07-11T00:51:16.352Z,25.34
2017-07-11T00:51:56.814Z,25.34
2017-07-11T00:52:37.274Z,25.29
2017-07-11T00:53:17.722Z,25.34
2017-07-11T00:53:58.177Z,25.33
2017-07-11T00:54:38.645Z,25.3
2017-07-11T00:55:19.105Z,25.25
2017-07-11T00:55:59.561Z,25.25
2017-07-11T00:56:40.015Z,25.26
2017-07-11T00:57:20.481Z,25.25
2017-07-11T00:58:00.935Z,25.26
2017-07-11T00:58:41.389Z,25.3
2017-07-11T00:59:21.849Z,25.26
2017-07-11T01:00:02.301Z,25.26
2017-07-11T01:00:42.754Z,25.26
2017-07-11T01:02:20.521Z,25.25
2017-07-11T01:03:00.974Z,25.25
2017-07-11T01:03:41.429Z,25.3
2017-07-11T01:04:21.884Z,25.25
2017-07-11T01:05:02.341Z,25.3
2017-07-11T01:05:42.787Z,25.26
2017-07-11T01:06:23.242Z,25.25
2017-07-11T01:07:03.695Z,25.22
2017-07-11T01:07:44.154Z,25.26
2017-07-11T01:08:24.608Z,25.31
2017-07-11T01:09:05.065Z,25.24
2017-07-11T01:09:45.553Z,25.25
2017-07-11T01:10:25.999Z,25.18
2017-07-11T01:11:06.453Z,25.14
2017-07-11T01:11:46.913Z,25.14
2017-07-11T01:12:27.373Z,25.03
2017-07-11T01:13:07.822Z,25.06
2017-07-11T01:13:48.280Z,25.09
2017-07-11T01:14:28.732Z,25.03
2017-07-11T01:15:09.189Z,24.89
2017-07-11T01:15:49.648Z,24.86
2017-07-11T01:16:30.112Z,24.92
2017-07-11T01:17:10.583Z,24.85
2017-07-11T01:17:51.029Z,24.82
2017-07-11T01:18:31.485Z,24.82
2017-07-11T01:19:11.935Z,24.85
2017-07-11T01:19:52.427Z,24.84
2017-07-11T01:20:32.882Z,24.86
2017-07-11T01:21:13.339Z,24.78
2017-07-11T01:21:53.807Z,24.78
2017-07-11T01:22:34.261Z,24.65
2017-07-11T01:23:14.719Z,24.69
2017-07-11T01:23:55.179Z,24.68
2017-07-11T01:24:35.626Z,24.68
2017-07-11T01:25:16.104Z,24.68
2017-07-11T01:25:56.570Z,24.74
2017-07-11T01:26:37.028Z,24.75
2017-07-11T01:27:17.483Z,24.75
2017-07-11T01:27:57.937Z,24.75
2017-07-11T01:28:38.398Z,24.81
2017-07-11T01:29:18.850Z,24.85
2017-07-11T01:29:59.298Z,24.86
2017-07-11T01:30:39.746Z,24.86
2017-07-11T01:31:20.193Z,24.84
2017-07-11T01:32:00.642Z,24.93
2017-07-11T01:32:41.098Z,24.86
2017-07-11T01:33:21.549Z,24.86
2017-07-11T01:34:02.008Z,24.96
2017-07-11T01:34:42.446Z,24.89
2017-07-11T01:35:22.902Z,24.92
2017-07-11T01:36:03.357Z,24.85
2017-07-11T01:36:43.806Z,24.84
2017-07-11T01:37:24.254Z,24.92
2017-07-11T01:38:04.706Z,24.89
2017-07-11T01:38:45.159Z,24.88
2017-07-11T01:39:25.612Z,24.84
2017-07-11T01:40:06.056Z,24.88
2017-07-11T01:40:46.514Z,24.84
2017-07-11T01:41:26.987Z,24.85
2017-07-11T01:42:07.445Z,24.92
2017-07-11T01:42:47.908Z,24.97
2017-07-11T01:43:28.358Z,24.86
2017-07-11T01:44:08.811Z,24.89
2017-07-11T01:44:49.270Z,25.01
2017-07-11T01:45:29.722Z,25
2017-07-11T01:46:10.182Z,24.97
2017-07-11T01:46:50.640Z,24.97
2017-07-11T01:47:31.097Z,25.01
2017-07-11T01:48:11.558Z,25.06
2017-07-11T01:48:52.015Z,25.07
2017-07-11T01:49:32.472Z,25.01
2017-07-11T01:50:12.927Z,25.03
2017-07-11T01:50:53.382Z,25.07
2017-07-11T01:51:33.841Z,25.04
2017-07-11T01:52:14.290Z,25.14
2017-07-11T01:52:54.755Z,25.11
2017-07-11T01:53:35.210Z,25.07
2017-07-11T01:54:15.666Z,25.18
2017-07-11T01:54:56.125Z,25.3
2017-07-11T01:55:36.581Z,25.21
2017-07-11T01:56:17.041Z,25.14
2017-07-11T01:56:57.499Z,25.14
2017-07-11T01:57:37.951Z,25.09
2017-07-11T01:58:18.406Z,25.01
2017-07-11T01:58:58.860Z,25.03
2017-07-11T01:59:39.313Z,25.12
2017-07-11T02:00:19.770Z,25.03
2017-07-11T02:01:00.224Z,25.01
2017-07-11T02:01:40.692Z,25.14
2017-07-11T02:02:21.155Z,25.03
2017-07-11T02:03:01.612Z,25
2017-07-11T02:03:42.072Z,25.09
2017-07-11T02:04:22.536Z,25.09
2017-07-11T02:05:02.989Z,24.99
2017-07-11T02:05:43.449Z,25.01
2017-07-11T02:06:23.905Z,24.99
2017-07-11T02:07:04.355Z,25.06
2017-07-11T02:07:44.807Z,24.97
2017-07-11T02:08:25.255Z,25.03
2017-07-11T02:09:05.719Z,24.99
2017-07-11T02:09:46.175Z,24.97
2017-07-11T02:10:26.633Z,24.81
2017-07-11T02:11:07.080Z,24.81
2017-07-11T02:11:47.551Z,24.84
2017-07-11T02:12:28.016Z,24.79
2017-07-11T02:13:08.482Z,24.79
2017-07-11T02:13:48.936Z,24.74
2017-07-11T02:14:29.385Z,24.77
2017-07-11T02:15:09.842Z,24.78
2017-07-11T02:15:50.300Z,24.81
2017-07-11T02:16:30.753Z,24.79
2017-07-11T02:17:11.203Z,24.69
2017-07-11T02:17:51.659Z,24.81
2017-07-11T02:18:32.114Z,24.92
2017-07-11T02:19:12.578Z,24.85
2017-07-11T02:19:53.033Z,24.89
2017-07-11T02:20:33.488Z,24.81
2017-07-11T02:21:13.942Z,24.88
2017-07-11T02:21:54.405Z,24.82
2017-07-11T02:22:34.858Z,24.96
2017-07-11T02:23:15.310Z,25.03
2017-07-11T02:23:55.760Z,24.99
2017-07-11T02:24:36.217Z,24.97
2017-07-11T02:25:16.672Z,24.96
2017-07-11T02:25:57.138Z,24.96
2017-07-11T02:26:37.595Z,24.99
2017-07-11T02:27:18.061Z,24.99
2017-07-11T02:27:58.523Z,25
2017-07-11T02:28:38.976Z,24.94
2017-07-11T02:29:19.439Z,24.97
2017-07-11T02:29:59.894Z,25.03
2017-07-11T02:30:40.346Z,24.96
2017-07-11T02:31:20.794Z,24.96
2017-07-11T02:32:01.261Z,25
2017-07-11T02:32:41.714Z,24.97
2017-07-11T02:33:22.168Z,24.94
2017-07-11T02:34:02.619Z,25.09
2017-07-11T02:34:43.081Z,24.96
2017-07-11T02:35:23.806Z,24.99
2017-07-11T02:36:04.251Z,24.99
2017-07-11T02:36:44.713Z,24.93
2017-07-11T02:37:25.168Z,24.84
2017-07-11T02:38:05.617Z,24.93
2017-07-11T02:38:46.063Z,24.96
2017-07-11T02:39:26.525Z,24.96
2017-07-11T02:40:06.983Z,24.82
2017-07-11T02:40:47.451Z,24.86
2017-07-11T02:41:27.902Z,24.96
2017-07-11T02:42:08.360Z,24.97
2017-07-11T02:42:48.818Z,24.93
2017-07-11T02:43:29.315Z,24.99
2017-07-11T02:44:09.774Z,24.94
2017-07-11T02:44:50.232Z,24.94
2017-07-11T02:45:30.689Z,25.03
2017-07-11T02:46:11.153Z,24.88
2017-07-11T02:46:51.608Z,24.96
2017-07-11T02:47:32.061Z,24.94
2017-07-11T02:48:12.505Z,24.85
2017-07-11T02:48:52.956Z,24.97
2017-07-11T02:49:33.416Z,24.86
2017-07-11T02:50:13.873Z,24.86
2017-07-11T02:50:54.316Z,24.89
2017-07-11T02:51:34.770Z,24.82
2017-07-11T02:52:15.221Z,24.88
2017-07-11T02:52:55.681Z,24.86
2017-07-11T02:53:36.132Z,24.89
2017-07-11T02:54:16.587Z,24.88
2017-07-11T02:54:57.046Z,24.96
2017-07-11T02:55:37.500Z,24.89
2017-07-11T02:56:17.956Z,24.93
2017-07-11T02:56:58.415Z,24.86
2017-07-11T02:57:38.872Z,24.86
2017-07-11T02:58:19.330Z,24.94
2017-07-11T02:58:59.777Z,24.96
2017-07-11T02:59:40.225Z,24.93
2017-07-11T03:00:20.674Z,24.96
2017-07-11T03:01:01.124Z,25
2017-07-11T03:01:41.585Z,25.11
2017-07-11T03:02:22.038Z,25
2017-07-11T03:03:02.516Z,25.04
2017-07-11T03:03:42.973Z,25.04
2017-07-11T03:04:23.424Z,25.01
2017-07-11T03:05:03.882Z,25.06
2017-07-11T03:05:44.332Z,25.01
2017-07-11T03:06:24.779Z,25.03
2017-07-11T03:07:05.231Z,25
2017-07-11T03:07:45.685Z,25.03
2017-07-11T03:08:26.142Z,25.11
2017-07-11T03:09:06.600Z,25.14
2017-07-11T03:09:47.054Z,25.03
2017-07-11T03:10:27.515Z,25.12
2017-07-11T03:11:07.977Z,25.12
2017-07-11T03:11:48.437Z,25.15
2017-07-11T03:12:28.893Z,25.14
2017-07-11T03:13:09.351Z,25.15
2017-07-11T03:13:49.801Z,25.01
2017-07-11T03:14:30.256Z,25.04
2017-07-11T03:15:10.716Z,25.09
2017-07-11T03:15:51.174Z,25.11
2017-07-11T03:16:31.625Z,25.06
2017-07-11T03:17:12.081Z,25.01
2017-07-11T03:17:52.530Z,25.01
2017-07-11T03:18:32.989Z,25
2017-07-11T03:19:13.485Z,24.94
2017-07-11T03:19:53.943Z,24.84
2017-07-11T03:20:34.397Z,24.85
2017-07-11T03:21:14.856Z,24.82
2017-07-11T03:21:55.311Z,24.84
2017-07-11T03:22:35.768Z,24.84
2017-07-11T03:23:16.219Z,24.69
2017-07-11T03:23:56.681Z,24.81
2017-07-11T03:24:37.137Z,24.77
2017-07-11T03:25:17.595Z,24.81
2017-07-11T03:25:58.053Z,24.71
2017-07-11T03:26:38.534Z,24.68
2017-07-11T03:27:19.047Z,24.69
2017-07-11T03:27:59.506Z,24.79
2017-07-11T03:28:39.954Z,24.69
2017-07-11T03:29:20.409Z,24.69
2017-07-11T03:30:00.870Z,24.69
2017-07-11T03:30:41.328Z,24.71
2017-07-11T03:31:21.781Z,24.77
2017-07-11T03:32:02.240Z,24.69
2017-07-11T03:32:42.697Z,24.71
2017-07-11T03:33:23.141Z,24.75
2017-07-11T03:34:03.646Z,24.75
2017-07-11T03:34:44.057Z,24.79
2017-07-11T03:35:24.517Z,24.68
2017-07-11T03:36:04.978Z,24.68
2017-07-11T03:36:45.437Z,24.82
2017-07-11T03:37:25.893Z,24.82
2017-07-11T03:38:06.348Z,24.84
2017-07-11T03:38:46.804Z,24.85
2017-07-11T03:39:27.277Z,24.92
2017-07-11T03:40:07.740Z,24.93
2017-07-11T03:40:48.198Z,24.97
2017-07-11T03:41:28.655Z,24.92
2017-07-11T03:42:09.113Z,25
2017-07-11T03:42:49.620Z,25.12
2017-07-11T03:43:30.027Z,25.04
2017-07-11T03:44:10.487Z,25.14
2017-07-11T03:44:50.949Z,25.16
2017-07-11T03:45:31.401Z,25.21
2017-07-11T03:46:11.917Z,25.29
2017-07-11T03:46:52.311Z,25.24
2017-07-11T03:47:32.770Z,25.34
2017-07-11T03:48:13.228Z,25.33
2017-07-11T03:48:53.697Z,25.34
2017-07-11T03:49:34.171Z,25.4
2017-07-11T03:50:14.631Z,25.37
2017-07-11T03:50:55.088Z,25.36
2017-07-11T03:51:35.541Z,25.4
2017-07-11T03:52:15.998Z,25.4
2017-07-11T03:52:56.458Z,25.52
2017-07-11T03:53:36.922Z,25.48
2017-07-11T03:54:17.382Z,25.41
2017-07-11T03:54:57.844Z,25.37
2017-07-11T03:55:38.298Z,25.43
2017-07-11T03:56:18.758Z,25.54
2017-07-11T03:56:59.214Z,25.52
2017-07-11T03:57:39.671Z,25.55
2017-07-11T03:58:20.146Z,25.51
2017-07-11T03:59:00.594Z,25.51
2017-07-11T03:59:41.048Z,25.48
2017-07-11T04:00:21.524Z,25.49
2017-07-11T04:01:01.983Z,25.48
2017-07-11T04:01:42.463Z,25.46
2017-07-11T04:02:22.922Z,25.54
2017-07-11T04:03:03.374Z,25.56
2017-07-11T04:03:43.826Z,25.43
2017-07-11T04:04:24.284Z,25.41
2017-07-11T04:05:04.741Z,25.59
2017-07-11T04:05:45.205Z,25.59
2017-07-11T04:06:25.661Z,25.54
2017-07-11T04:07:06.121Z,25.59
2017-07-11T04:07:46.585Z,25.59
2017-07-11T04:08:27.035Z,25.71
2017-07-11T04:09:07.495Z,25.63
2017-07-11T04:09:47.945Z,25.67
2017-07-11T04:10:28.413Z,25.59
2017-07-11T04:11:08.878Z,25.59
2017-07-11T04:11:49.336Z,25.67
2017-07-11T04:12:29.790Z,25.7
2017-07-11T04:13:10.251Z,25.71
2017-07-11T04:13:50.711Z,25.67
2017-07-11T04:14:31.168Z,25.74
2017-07-11T04:15:11.623Z,25.74
2017-07-11T04:15:52.080Z,25.76
2017-07-11T04:16:32.544Z,25.74
2017-07-11T04:18:09.859Z,25.77
2017-07-11T04:18:50.319Z,25.74
2017-07-11T04:19:30.782Z,25.71
2017-07-11T04:20:11.235Z,25.77
2017-07-11T04:20:51.689Z,25.7
2017-07-11T04:21:32.141Z,25.73
2017-07-11T04:22:12.593Z,25.77
2017-07-11T04:22:53.047Z,25.74
2017-07-11T04:23:33.500Z,25.73
2017-07-11T04:24:13.957Z,25.85
2017-07-11T04:24:54.415Z,25.66
2017-07-11T04:25:34.868Z,25.77
2017-07-11T04:26:15.331Z,25.86
2017-07-11T04:26:55.791Z,25.81
2017-07-11T04:27:36.262Z,25.78
2017-07-11T04:28:16.725Z,25.78
2017-07-11T04:28:57.176Z,25.83
2017-07-11T04:29:37.629Z,25.74
2017-07-11T04:30:18.091Z,25.81
2017-07-11T04:30:58.546Z,25.85
2017-07-11T04:31:39.000Z,25.8
2017-07-11T04:32:19.435Z,25.74
2017-07-11T04:32:59.889Z,25.81
2017-07-11T04:33:40.343Z,25.77
2017-07-11T04:34:20.798Z,25.74
2017-07-11T04:35:01.315Z,25.85
2017-07-11T04:35:41.714Z,25.74
2017-07-11T04:36:22.177Z,25.78
2017-07-11T04:37:02.634Z,25.7
2017-07-11T04:37:43.089Z,25.83
2017-07-11T04:38:23.933Z,25.81
2017-07-11T04:39:04.388Z,25.8
2017-07-11T04:39:44.830Z,25.8
2017-07-11T04:40:25.284Z,25.8
2017-07-11T04:41:05.741Z,25.78
2017-07-11T04:41:46.201Z,25.77
2017-07-11T04:42:26.655Z,25.77
2017-07-11T04:43:07.103Z,25.81
2017-07-11T04:43:47.640Z,25.77
2017-07-11T04:44:28.050Z,25.85
2017-07-11T04:45:08.506Z,25.77
2017-07-11T04:45:48.962Z,25.76
2017-07-11T04:46:29.435Z,25.7
2017-07-11T04:47:09.880Z,25.77
2017-07-11T04:47:50.345Z,25.78
2017-07-11T04:48:30.796Z,25.71
2017-07-11T04:49:11.245Z,25.71
2017-07-11T04:49:51.696Z,25.74
2017-07-11T04:50:32.147Z,25.77
2017-07-11T04:51:12.607Z,25.74
2017-07-11T04:51:53.063Z,25.78
2017-07-11T04:52:33.519Z,25.8
2017-07-11T04:53:13.977Z,25.81
2017-07-11T04:53:55.810Z,25.7
2017-07-11T04:54:36.266Z,25.8
2017-07-11T04:55:16.722Z,25.81
2017-07-11T04:55:57.178Z,25.73
2017-07-11T04:56:37.628Z,25.86
2017-07-11T04:57:18.092Z,25.77
2017-07-11T04:57:58.538Z,25.78
2017-07-11T04:58:38.994Z,25.8
2017-07-11T04:59:19.457Z,25.85
2017-07-11T04:59:59.926Z,25.71
2017-07-11T05:00:40.383Z,25.73
2017-07-11T05:01:20.833Z,25.83
2017-07-11T05:02:01.291Z,25.89
2017-07-11T05:02:41.741Z,25.81
2017-07-11T05:03:22.199Z,25.76
2017-07-11T05:04:02.660Z,25.71
2017-07-11T05:04:43.118Z,25.85
2017-07-11T05:05:23.570Z,25.74
2017-07-11T05:06:04.031Z,25.71
2017-07-11T05:06:44.494Z,25.8
2017-07-11T05:07:24.945Z,25.73
2017-07-11T05:08:05.399Z,25.81
2017-07-11T05:08:45.854Z,25.76
2017-07-11T05:09:26.314Z,25.81
2017-07-11T05:10:06.763Z,25.81
2017-07-11T05:10:47.216Z,25.78
2017-07-11T05:11:27.672Z,25.78
2017-07-11T05:12:08.126Z,25.78
2017-07-11T05:12:48.579Z,25.81
2017-07-11T05:13:29.084Z,25.8
2017-07-11T05:14:09.499Z,25.83
2017-07-11T05:14:49.955Z,25.81
2017-07-11T05:15:30.415Z,25.81
2017-07-11T05:16:10.869Z,25.81
2017-07-11T05:16:51.330Z,25.78
2017-07-11T05:17:31.789Z,25.77
2017-07-11T05:18:12.247Z,25.8
2017-07-11T05:18:52.731Z,25.77
2017-07-11T05:19:33.188Z,25.8
2017-07-11T05:20:13.689Z,25.83
2017-07-11T05:20:54.108Z,25.86
2017-07-11T05:21:34.557Z,25.81
2017-07-11T05:22:15.018Z,25.83
2017-07-11T05:22:55.475Z,25.76
2017-07-11T05:23:35.937Z,25.83
2017-07-11T05:24:16.385Z,25.83
2017-07-11T05:24:56.842Z,25.83
2017-07-11T05:25:37.300Z,25.8
2017-07-11T05:26:17.756Z,25.83
2017-07-11T05:26:58.215Z,25.8
2017-07-11T05:27:38.664Z,25.89
2017-07-11T05:28:19.114Z,25.85
2017-07-11T05:28:59.573Z,25.85
2017-07-11T05:29:40.027Z,25.81
2017-07-11T05:30:20.491Z,25.83
2017-07-11T05:31:00.938Z,25.85
2017-07-11T05:31:41.398Z,25.81
2017-07-11T05:32:21.851Z,25.86
2017-07-11T05:33:02.304Z,25.81
2017-07-11T05:33:42.760Z,25.86
2017-07-11T05:34:23.222Z,25.86
2017-07-11T05:35:03.676Z,25.81
2017-07-11T05:35:44.124Z,25.85
2017-07-11T05:36:24.590Z,25.88
2017-07-11T05:37:05.038Z,25.86
2017-07-11T05:37:45.493Z,25.89
2017-07-11T05:38:25.957Z,25.8
2017-07-11T05:39:06.439Z,25.85
2017-07-11T05:39:46.885Z,25.86
2017-07-11T05:40:27.357Z,25.81
2017-07-11T05:41:07.815Z,25.86
2017-07-11T05:41:48.264Z,25.83
2017-07-11T05:42:28.718Z,25.83
2017-07-11T05:43:09.169Z,25.81
2017-07-11T05:43:49.624Z,25.85
2017-07-11T05:44:30.073Z,25.8
2017-07-11T05:45:10.532Z,25.81
2017-07-11T05:45:50.986Z,25.77
2017-07-11T05:46:31.474Z,25.8
2017-07-11T05:47:11.929Z,25.8
2017-07-11T05:47:52.386Z,25.83
2017-07-11T05:48:32.842Z,25.81
2017-07-11T05:49:13.298Z,25.8
2017-07-11T05:49:53.753Z,25.77
2017-07-11T05:50:34.203Z,25.83
2017-07-11T05:51:14.660Z,25.78
2017-07-11T05:51:55.107Z,25.81
2017-07-11T05:52:35.570Z,25.86
2017-07-11T05:53:16.025Z,25.8
2017-07-11T05:53:56.487Z,25.8
2017-07-11T05:54:36.946Z,25.83
2017-07-11T05:55:17.407Z,25.83
2017-07-11T05:55:57.864Z,25.89
2017-07-11T05:56:38.319Z,25.88
2017-07-11T05:57:18.774Z,25.85
2017-07-11T05:57:59.229Z,25.85
2017-07-11T05:58:39.683Z,25.95
2017-07-11T05:59:20.135Z,25.89
2017-07-11T06:00:00.595Z,25.88
2017-07-11T06:00:41.048Z,25.92
2017-07-11T06:01:21.501Z,25.91
2017-07-11T06:02:01.960Z,25.93
2017-07-11T06:02:42.425Z,25.99
2017-07-11T06:03:22.876Z,25.99
2017-07-11T06:04:03.329Z,25.95
2017-07-11T06:04:43.788Z,25.92
2017-07-11T06:05:24.243Z,25.98
2017-07-11T06:06:04.690Z,25.95
2017-07-11T06:06:45.146Z,25.99
2017-07-11T06:07:25.601Z,26.08
2017-07-11T06:08:06.060Z,26.04
2017-07-11T06:08:46.516Z,26.06
2017-07-11T06:09:26.967Z,26.04
2017-07-11T06:10:09.363Z,26.01
2017-07-11T06:10:49.820Z,25.99
2017-07-11T06:11:30.274Z,26.01
2017-07-11T06:12:10.738Z,25.98
2017-07-11T06:12:51.194Z,25.98
2017-07-11T06:13:31.649Z,25.99
2017-07-11T06:14:12.106Z,26.03
2017-07-11T06:14:52.566Z,26.08
2017-07-11T06:15:33.025Z,26.01
2017-07-11T06:16:13.482Z,25.95
2017-07-11T06:16:53.937Z,26.1
2017-07-11T06:17:34.388Z,26.15
2017-07-11T06:18:14.847Z,26.08
2017-07-11T06:18:55.297Z,26.01
2017-07-11T06:19:35.749Z,26.01
2017-07-11T06:20:16.208Z,26.13
2017-07-11T06:20:56.663Z,26.07
2017-07-11T06:21:37.111Z,26.1
2017-07-11T06:22:17.572Z,26.13
2017-07-11T06:22:58.032Z,26.11
2017-07-11T06:23:38.487Z,26.04
2017-07-11T06:24:18.944Z,26.08
2017-07-11T06:24:59.398Z,25.93
2017-07-11T06:25:39.852Z,25.98
2017-07-11T06:26:20.308Z,26.03
2017-07-11T06:27:00.773Z,25.98
2017-07-11T06:27:41.223Z,26.03
2017-07-11T06:28:21.674Z,25.96
2017-07-11T06:29:02.131Z,26.1
2017-07-11T06:29:42.591Z,26.1
2017-07-11T06:30:23.048Z,26.15
2017-07-11T06:31:03.503Z,26.18
2017-07-11T06:31:43.974Z,26.18
2017-07-11T06:32:24.410Z,26.26
2017-07-11T06:33:04.861Z,26.19
2017-07-11T06:33:45.316Z,26.16
2017-07-11T06:34:25.772Z,26.27
2017-07-11T06:35:06.231Z,26.31
2017-07-11T06:35:46.679Z,26.24
2017-07-11T06:36:27.128Z,26.27
2017-07-11T06:37:07.587Z,26.33
2017-07-11T06:37:48.045Z,26.27
2017-07-11T06:38:28.500Z,26.26
2017-07-11T06:39:08.963Z,26.31
2017-07-11T06:39:49.422Z,26.23
2017-07-11T06:40:29.880Z,26.26
2017-07-11T06:41:12.205Z,26.23
2017-07-11T06:41:52.660Z,26.31
2017-07-11T06:42:33.108Z,26.24
2017-07-11T06:43:13.565Z,26.26
2017-07-11T06:43:54.007Z,26.24
2017-07-11T06:44:34.466Z,26.31
2017-07-11T06:45:14.922Z,26.26
2017-07-11T06:45:55.381Z,26.26
2017-07-11T06:46:35.832Z,26.26
2017-07-11T06:47:16.288Z,26.34
2017-07-11T06:47:56.744Z,26.33
2017-07-11T06:48:37.200Z,26.33
2017-07-11T06:49:17.657Z,26.29
2017-07-11T06:49:58.103Z,26.33
2017-07-11T06:50:38.559Z,26.3
2017-07-11T06:51:19.050Z,26.31
2017-07-11T06:51:59.512Z,26.27
2017-07-11T06:52:39.983Z,26.33
2017-07-11T06:53:20.446Z,26.31
2017-07-11T06:54:00.897Z,26.3
2017-07-11T06:54:41.352Z,26.29
2017-07-11T06:55:21.810Z,26.34
2017-07-11T06:56:02.272Z,26.31
2017-07-11T06:56:42.725Z,26.33
2017-07-11T06:57:23.180Z,26.29
2017-07-11T06:58:03.638Z,26.27
2017-07-11T06:58:44.094Z,26.3
2017-07-11T06:59:24.547Z,26.3
2017-07-11T07:00:05.002Z,26.3
2017-07-11T07:00:45.464Z,26.33
2017-07-11T07:01:25.924Z,26.3
2017-07-11T07:02:06.434Z,26.3
2017-07-11T07:02:46.952Z,26.3
2017-07-11T07:03:27.412Z,26.27
2017-07-11T07:04:07.870Z,26.3
2017-07-11T07:04:48.326Z,26.27
2017-07-11T07:05:28.783Z,26.27
2017-07-11T07:06:09.231Z,26.24
2017-07-11T07:06:49.700Z,26.3
2017-07-11T07:07:30.155Z,26.29
2017-07-11T07:08:10.682Z,26.27
2017-07-11T07:08:51.146Z,26.31
2017-07-11T07:09:31.605Z,26.31
2017-07-11T07:10:12.065Z,26.29
2017-07-11T07:10:52.524Z,26.29
2017-07-11T07:11:32.983Z,26.37
2017-07-11T07:12:13.439Z,26.29
2017-07-11T07:12:53.898Z,26.34
2017-07-11T07:13:34.355Z,26.31
2017-07-11T07:14:14.812Z,26.36
2017-07-11T07:14:55.272Z,26.33
2017-07-11T07:15:35.728Z,26.3
2017-07-11T07:16:16.186Z,26.3
2017-07-11T07:16:56.644Z,26.37
2017-07-11T07:17:37.099Z,26.34
2017-07-11T07:18:17.562Z,26.34
2017-07-11T07:18:58.013Z,26.31
2017-07-11T07:19:38.509Z,26.33
2017-07-11T07:20:18.962Z,26.34
2017-07-11T07:20:59.420Z,26.33
2017-07-11T07:21:39.869Z,26.33
2017-07-11T07:22:20.322Z,26.33
2017-07-11T07:23:00.793Z,26.29
2017-07-11T07:23:41.251Z,26.34
2017-07-11T07:24:21.708Z,26.29
2017-07-11T07:25:02.174Z,26.3
2017-07-11T07:25:42.695Z,26.29
2017-07-11T07:26:23.159Z,26.3
2017-07-11T07:27:03.648Z,26.31
2017-07-11T07:27:45.350Z,26.34
2017-07-11T07:28:25.795Z,26.31
2017-07-11T07:29:06.249Z,26.31
2017-07-11T07:29:46.705Z,26.33
2017-07-11T07:30:27.165Z,26.29
2017-07-11T07:31:07.620Z,26.36
2017-07-11T07:31:48.081Z,26.33
2017-07-11T07:32:28.541Z,26.36
2017-07-11T07:33:08.998Z,26.31
2017-07-11T07:33:49.456Z,26.3
2017-07-11T07:34:30.173Z,26.31
2017-07-11T07:35:10.630Z,26.36
2017-07-11T07:35:51.086Z,26.34
2017-07-11T07:36:31.538Z,26.39
2017-07-11T07:37:11.997Z,26.36
2017-07-11T07:37:52.448Z,26.31
2017-07-11T07:38:32.902Z,26.31
2017-07-11T07:39:13.360Z,26.3
2017-07-11T07:39:53.816Z,26.41
2017-07-11T07:40:34.273Z,26.34
2017-07-11T07:41:14.733Z,26.37
2017-07-11T07:41:55.191Z,26.37
2017-07-11T07:42:35.690Z,26.48
2017-07-11T07:43:16.150Z,26.49
2017-07-11T07:43:56.603Z,26.49
2017-07-11T07:44:37.447Z,26.51
2017-07-11T07:45:19.272Z,26.53
2017-07-11T07:46:00.853Z,26.63
2017-07-11T07:46:41.410Z,26.59
2017-07-11T07:47:21.833Z,26.66
2017-07-11T07:48:02.289Z,26.61
2017-07-11T07:48:42.756Z,26.73
2017-07-11T07:49:23.215Z,26.7
2017-07-11T07:50:03.674Z,26.68
2017-07-11T07:50:44.134Z,26.78
2017-07-11T07:51:24.575Z,26.81
2017-07-11T07:52:05.036Z,26.73
2017-07-11T07:52:45.495Z,26.82
2017-07-11T07:53:25.950Z,26.71
2017-07-11T07:54:06.414Z,26.76
2017-07-11T07:54:46.869Z,26.81
2017-07-11T07:55:27.328Z,26.86
2017-07-11T07:56:08.049Z,26.79
2017-07-11T07:56:48.502Z,26.76
2017-07-11T07:57:28.938Z,26.83
2017-07-11T07:58:09.396Z,26.86
2017-07-11T07:58:49.839Z,26.76
2017-07-11T07:59:30.281Z,26.81
2017-07-11T08:01:43.188Z,26.82
2017-07-11T08:02:23.787Z,26.85
2017-07-11T08:03:05.149Z,26.96
2017-07-11T08:03:45.601Z,26.92
2017-07-11T08:04:26.241Z,26.89
2017-07-11T08:05:06.980Z,26.88
2017-07-11T08:05:47.322Z,26.97
2017-07-11T08:06:27.983Z,26.97
2017-07-11T08:07:08.776Z,27.03
2017-07-11T08:07:49.173Z,27
2017-07-11T08:08:29.638Z,27.01
2017-07-11T08:09:10.055Z,27.04
2017-07-11T08:09:50.498Z,27.03
2017-07-11T08:10:30.929Z,27.05
2017-07-11T08:11:11.329Z,27.11
2017-07-11T08:11:51.755Z,27.11
2017-07-11T08:12:32.160Z,27.18
2017-07-11T08:13:12.533Z,27.1
2017-07-11T08:13:52.943Z,27.19
2017-07-11T08:14:33.344Z,27.25
2017-07-11T08:15:13.781Z,27.22
2017-07-11T08:15:54.236Z,27.15
2017-07-11T08:16:34.682Z,27.11
2017-07-11T08:17:15.143Z,27.2
2017-07-11T08:17:55.599Z,27.2
2017-07-11T08:18:36.061Z,27.28
2017-07-11T08:19:16.515Z,27.3
2017-07-11T08:19:56.967Z,27.35
2017-07-11T08:20:37.417Z,27.25
2017-07-11T08:21:17.861Z,27.2
2017-07-11T08:21:58.314Z,27.41
2017-07-11T08:22:38.748Z,27.38
2017-07-11T08:23:19.207Z,27.34
2017-07-11T08:23:59.655Z,27.37
2017-07-11T08:24:40.114Z,27.38
2017-07-11T08:25:20.568Z,27.38
2017-07-11T08:26:01.008Z,27.34
2017-07-11T08:26:41.465Z,27.41
2017-07-11T08:27:21.871Z,27.34
2017-07-11T08:28:02.328Z,27.44
2017-07-11T08:28:42.872Z,27.45
2017-07-11T08:29:23.280Z,27.52
2017-07-11T08:30:03.743Z,27.43
2017-07-11T08:30:44.211Z,27.5
2017-07-11T08:31:24.663Z,27.5
2017-07-11T08:32:05.125Z,27.52
2017-07-11T08:32:45.585Z,27.6
2017-07-11T08:33:26.039Z,27.53
2017-07-11T08:34:06.499Z,27.58
2017-07-11T08:34:46.952Z,27.52
2017-07-11T08:35:27.404Z,27.66
2017-07-11T08:36:07.848Z,27.58
2017-07-11T08:36:48.308Z,27.67
2017-07-11T08:37:28.789Z,27.64
2017-07-11T08:38:09.227Z,27.61
2017-07-11T08:38:49.687Z,27.68
2017-07-11T08:39:30.137Z,27.68
2017-07-11T08:40:10.596Z,27.68
2017-07-11T08:40:51.052Z,27.67
2017-07-11T08:41:31.510Z,27.72
2017-07-11T08:42:11.969Z,27.64
2017-07-11T08:42:52.432Z,27.63
2017-07-11T08:43:32.888Z,27.68
2017-07-11T08:44:13.353Z,27.68
2017-07-11T08:44:53.809Z,27.66
2017-07-11T08:45:34.279Z,27.66
2017-07-11T08:46:14.727Z,27.61
2017-07-11T08:46:55.183Z,27.64
2017-07-11T08:47:35.631Z,27.63